Time;durP1;ratioP1;P1;durP2;ratioP2;P2;SDS_P1;SDS_P2;PMS_P1;PMS_P2;Temp;Humidity;BMP_temperature;BMP_pressure;BME280_temperature;BME280_humidity;BME280_pressure;Samples;Min_cycle;Max_cycle;Signal;HPM_P1;HPM_P2
2023/03/03 00:00:06;;;;;;;35.05;18.33;;;0.30;99.90;;;;;;4995802;28;20030;-55
2023/03/03 00:02:52;;;;;;;28.05;17.55;;;0.30;99.90;;;;;;4979701;28;20053;-57
2023/03/03 00:05:38;;;;;;;32.75;17.48;;;0.50;99.90;;;;;;4995029;28;20026;-55
2023/03/03 00:08:24;;;;;;;37.40;18.05;;;0.30;99.90;;;;;;4995624;28;20039;-56
2023/03/03 00:11:10;;;;;;;34.67;17.80;;;0.20;99.90;;;;;;4994268;28;20026;-56
2023/03/03 00:13:56;;;;;;;29.73;16.50;;;0.40;99.90;;;;;;4994889;28;20038;-55
2023/03/03 00:16:42;;;;;;;30.73;16.30;;;0.50;99.90;;;;;;4974911;28;20034;-52
2023/03/03 00:19:36;;;;;;;31.95;17.50;;;0.60;99.90;;;;;;4978356;28;20030;-53
2023/03/03 00:22:29;;;;;;;30.80;17.25;;;0.60;99.90;;;;;;4994339;28;20058;-54
2023/03/03 00:25:18;;;;;;;30.08;15.95;;;0.70;99.90;;;;;;4994632;28;20015;-55
2023/03/03 00:28:17;;;;;;;39.17;16.23;;;0.60;99.90;;;;;;4994987;28;20483;-57
2023/03/03 00:31:15;;;;;;;31.58;16.13;;;0.60;99.90;;;;;;4974003;28;20038;-57
2023/03/03 00:34:26;;;;;;;28.48;15.73;;;0.60;99.90;;;;;;4981843;28;20080;-55
2023/03/03 00:37:33;;;;;;;28.38;16.02;;;0.40;99.90;;;;;;4993093;28;20534;-52
2023/03/03 00:40:34;;;;;;;30.65;15.13;;;0.50;99.90;;;;;;4993230;28;20041;-53
2023/03/03 00:43:27;;;;;;;26.55;15.38;;;0.50;99.90;;;;;;4993506;28;20037;-58
2023/03/03 00:46:23;;;;;;;26.45;15.18;;;0.60;99.90;;;;;;4993987;28;20022;-52
2023/03/03 00:49:21;;;;;;;31.02;17.05;;;0.50;99.90;;;;;;4986475;28;20037;-56
2023/03/03 00:52:14;;;;;;;26.42;15.32;;;0.60;99.90;;;;;;4979311;28;20034;-53
2023/03/03 00:55:01;;;;;;;28.88;15.93;;;0.60;99.90;;;;;;4993473;28;20026;-53
2023/03/03 00:57:47;;;;;;;29.42;16.02;;;0.50;99.90;;;;;;4991861;28;20376;-54
2023/03/03 01:00:34;;;;;;;28.63;14.55;;;0.70;99.90;;;;;;4974272;28;20463;-59
2023/03/03 01:03:23;;;;;;;25.25;15.10;;;0.70;99.90;;;;;;4981529;28;20062;-51
2023/03/03 01:06:10;;;;;;;23.75;14.38;;;0.60;99.90;;;;;;4993805;28;20065;-56
2023/03/03 01:08:56;;;;;;;24.33;15.18;;;0.60;99.90;;;;;;4982921;28;20026;-55
2023/03/03 01:11:42;;;;;;;25.00;14.70;;;0.70;99.90;;;;;;4977087;28;20030;-55
2023/03/03 01:14:28;;;;;;;25.42;14.35;;;0.60;99.90;;;;;;4992984;28;20026;-53
2023/03/03 01:17:14;;;;;;;25.42;14.43;;;0.70;99.90;;;;;;4985059;28;20542;-55
2023/03/03 01:20:01;;;;;;;37.58;14.63;;;0.70;99.90;;;;;;4974482;28;20029;-54
2023/03/03 01:22:47;;;;;;;23.25;14.30;;;0.60;99.90;;;;;;4975243;28;20891;-52
2023/03/03 01:25:33;;;;;;;24.05;13.35;;;0.60;99.90;;;;;;4973699;28;20396;-54
2023/03/03 01:28:19;;;;;;;28.55;14.75;;;0.60;99.90;;;;;;4988081;28;20027;-51
2023/03/03 01:31:05;;;;;;;24.10;13.77;;;0.60;99.90;;;;;;4992354;28;20046;-53
2023/03/03 01:33:51;;;;;;;33.67;14.50;;;0.60;99.90;;;;;;4973650;28;20038;-53
2023/03/03 01:36:37;;;;;;;23.13;14.40;;;0.60;99.90;;;;;;4973759;28;20041;-58
2023/03/03 01:39:23;;;;;;;31.75;14.30;;;0.60;99.90;;;;;;4972727;28;20031;-51
2023/03/03 01:42:09;;;;;;;23.95;14.13;;;0.60;99.90;;;;;;4987161;28;20038;-53
2023/03/03 01:45:13;;;;;;;35.88;14.48;;;0.60;99.90;;;;;;4993035;28;20121;-52
2023/03/03 01:48:08;;;;;;;21.70;13.82;;;0.60;99.90;;;;;;4973383;28;20085;-53
2023/03/03 01:50:59;;;;;;;28.80;14.40;;;0.60;99.90;;;;;;4983729;28;20035;-53
2023/03/03 01:53:49;;;;;;;35.22;16.58;;;0.50;99.90;;;;;;4992964;28;20109;-52
2023/03/03 01:56:35;;;;;;;31.55;15.70;;;0.30;99.90;;;;;;4992299;28;20113;-51
2023/03/03 01:59:28;;;;;;;31.48;15.27;;;0.10;99.90;;;;;;4993610;28;20066;-52
2023/03/03 02:02:15;;;;;;;27.15;14.90;;;0.20;99.90;;;;;;4993082;28;20062;-55
2023/03/03 02:05:01;;;;;;;26.42;14.02;;;0.30;99.90;;;;;;4991463;28;20053;-56
2023/03/03 02:07:47;;;;;;;24.30;13.60;;;0.30;99.90;;;;;;4978342;28;20026;-50
2023/03/03 02:10:34;;;;;;;27.00;13.88;;;0.40;99.90;;;;;;4992765;28;20034;-57
2023/03/03 02:13:20;;;;;;;24.77;13.93;;;0.50;99.90;;;;;;4992135;28;20098;-50
2023/03/03 02:16:07;;;;;;;30.48;13.95;;;0.50;99.90;;;;;;4991485;28;20368;-53
2023/03/03 02:18:53;;;;;;;25.45;14.98;;;0.60;99.90;;;;;;4979463;28;20096;-53
2023/03/03 02:21:39;;;;;;;25.90;14.45;;;0.50;99.90;;;;;;4972799;28;20470;-58
2023/03/03 02:24:35;;;;;;;32.25;16.15;;;0.40;99.90;;;;;;4984339;28;20448;-51
2023/03/03 02:27:21;;;;;;;24.98;14.70;;;0.40;99.90;;;;;;4972330;28;20027;-58
2023/03/03 02:30:18;;;;;;;35.67;16.33;;;0.50;99.90;;;;;;4975825;28;20023;-56
2023/03/03 02:33:04;;;;;;;41.40;19.52;;;0.50;99.90;;;;;;4990890;28;20498;-56
2023/03/03 02:35:51;;;;;;;41.13;18.17;;;0.50;99.90;;;;;;4991891;28;20041;-55
2023/03/03 02:39:13;;;;;;;45.53;21.00;;;0.50;99.90;;;;;;4991948;28;20041;-53
2023/03/03 02:42:24;;;;;;;47.22;20.38;;;0.30;99.90;;;;;;4976737;28;20034;-56
2023/03/03 02:45:10;;;;;;;50.22;21.60;;;0.40;99.90;;;;;;4989021;28;20388;-58
2023/03/03 02:47:56;;;;;;;46.58;22.13;;;0.30;99.90;;;;;;4991128;28;20045;-57
2023/03/03 02:50:42;;;;;;;52.83;22.73;;;0.20;99.90;;;;;;4973888;28;20042;-57
2023/03/03 02:53:28;;;;;;;49.83;23.10;;;0.30;99.90;;;;;;4976219;28;20447;-58
2023/03/03 02:56:14;;;;;;;46.70;22.63;;;0.40;99.90;;;;;;4990871;28;20615;-56
2023/03/03 02:59:00;;;;;;;40.17;19.58;;;0.50;99.90;;;;;;4983593;28;20030;-53
2023/03/03 03:01:46;;;;;;;47.92;18.88;;;0.70;99.90;;;;;;4982460;28;20031;-53
2023/03/03 03:04:32;;;;;;;41.20;18.60;;;0.70;99.90;;;;;;4980155;28;20381;-56
2023/03/03 03:07:18;;;;;;;47.40;18.42;;;0.40;99.90;;;;;;4972420;28;20514;-53
2023/03/03 03:10:04;;;;;;;39.13;18.88;;;0.40;99.90;;;;;;4988028;28;20069;-56
2023/03/03 03:12:51;;;;;;;52.40;19.27;;;0.30;99.90;;;;;;4992364;28;20040;-55
2023/03/03 03:15:37;;;;;;;40.05;17.88;;;0.20;99.90;;;;;;4991248;28;20034;-57
2023/03/03 03:18:22;;;;;;;46.40;18.67;;;0.20;99.90;;;;;;4991263;28;20097;-57
2023/03/03 03:21:11;;;;;;;35.75;17.77;;;0.20;99.90;;;;;;4973297;28;20027;-54
2023/03/03 03:23:57;;;;;;;37.75;17.52;;;0.20;99.90;;;;;;4977381;28;20125;-54
2023/03/03 03:26:43;;;;;;;42.00;17.50;;;0.00;99.90;;;;;;4992745;28;20023;-56
2023/03/03 03:29:29;;;;;;;50.25;19.40;;;0.00;99.90;;;;;;4995682;28;20061;-59
2023/03/03 03:32:15;;;;;;;48.53;20.50;;;-0.10;99.90;;;;;;4977915;28;20027;-57
2023/03/03 03:35:01;;;;;;;41.95;19.17;;;-0.10;99.90;;;;;;4997316;28;20058;-56
2023/03/03 03:37:47;;;;;;;36.55;17.23;;;0.00;99.90;;;;;;4996615;28;20507;-57
2023/03/03 03:40:33;;;;;;;32.80;16.52;;;0.00;99.90;;;;;;4991144;28;20058;-56
2023/03/03 03:43:19;;;;;;;35.45;16.33;;;-0.10;99.90;;;;;;4997035;28;20053;-57
2023/03/03 03:46:05;;;;;;;31.40;15.10;;;0.00;99.90;;;;;;4995346;28;20022;-55
2023/03/03 03:48:51;;;;;;;36.65;17.13;;;0.10;99.90;;;;;;4981608;28;20106;-54
2023/03/03 03:51:40;;;;;;;38.47;18.02;;;0.10;99.90;;;;;;4980822;28;20041;-57
2023/03/03 03:54:26;;;;;;;32.35;17.10;;;0.10;99.90;;;;;;4995891;28;20041;-55
2023/03/03 03:57:13;;;;;;;35.08;16.83;;;0.10;99.90;;;;;;4994508;28;20069;-52
2023/03/03 03:59:59;;;;;;;30.80;16.02;;;0.20;99.90;;;;;;4974737;28;20399;-57
2023/03/03 04:02:45;;;;;;;32.65;14.88;;;0.20;99.90;;;;;;4989096;28;20046;-56
2023/03/03 04:05:30;;;;;;;27.20;13.25;;;0.30;99.90;;;;;;4979565;28;20030;-57
2023/03/03 04:08:16;;;;;;;22.50;12.25;;;0.20;99.90;;;;;;4979842;28;20082;-55
2023/03/03 04:11:02;;;;;;;24.02;11.95;;;0.20;99.90;;;;;;4993993;28;20150;-58
2023/03/03 04:13:48;;;;;;;24.85;12.48;;;0.10;99.90;;;;;;4975484;28;20088;-56
2023/03/03 04:16:34;;;;;;;23.45;11.55;;;0.10;99.90;;;;;;4993594;28;20117;-56
2023/03/03 04:19:20;;;;;;;22.75;11.82;;;0.00;99.90;;;;;;4991169;28;20035;-52
2023/03/03 04:22:06;;;;;;;22.25;12.07;;;0.00;99.90;;;;;;4975563;28;20381;-59
2023/03/03 04:24:52;;;;;;;19.17;11.50;;;0.00;99.90;;;;;;4981792;28;20094;-56
2023/03/03 04:27:38;;;;;;;22.55;10.93;;;0.10;99.90;;;;;;4994373;28;20105;-58
2023/03/03 04:30:25;;;;;;;20.17;11.23;;;0.00;99.90;;;;;;4968429;28;20035;-53
2023/03/03 04:33:11;;;;;;;22.48;11.13;;;-0.10;99.90;;;;;;4975183;28;20042;-56
2023/03/03 04:35:57;;;;;;;20.15;10.85;;;-0.20;99.90;;;;;;4990253;28;20503;-55
2023/03/03 04:38:43;;;;;;;21.88;11.18;;;-0.10;99.90;;;;;;4991962;28;20034;-58
2023/03/03 04:41:29;;;;;;;19.23;10.18;;;-0.10;99.90;;;;;;4994626;28;20034;-56
2023/03/03 04:44:15;;;;;;;18.30;11.20;;;-0.30;99.90;;;;;;4992280;28;20487;-56
2023/03/03 04:47:01;;;;;;;19.52;11.27;;;-0.20;99.90;;;;;;4994671;28;20105;-50
2023/03/03 04:49:47;;;;;;;20.17;12.07;;;-0.30;99.90;;;;;;4994722;28;20067;-51
2023/03/03 04:52:33;;;;;;;18.60;10.80;;;-0.20;99.90;;;;;;4993795;28;20080;-53
2023/03/03 04:55:19;;;;;;;18.05;9.90;;;-0.10;99.90;;;;;;4993112;28;20546;-52
2023/03/03 04:58:05;;;;;;;18.23;10.80;;;-0.20;99.90;;;;;;4993421;28;20042;-55
2023/03/03 05:00:55;;;;;;;17.45;9.88;;;-0.30;99.90;;;;;;4992918;28;20026;-52
2023/03/03 05:03:42;;;;;;;19.75;11.68;;;-0.40;99.90;;;;;;4993944;28;20027;-55
2023/03/03 05:06:28;;;;;;;19.23;10.77;;;-0.40;99.90;;;;;;4993635;28;20660;-53
2023/03/03 05:09:14;;;;;;;20.08;10.50;;;-0.40;99.90;;;;;;4993861;28;20019;-51
2023/03/03 05:11:59;;;;;;;20.33;11.68;;;-0.30;99.90;;;;;;4993633;28;20042;-56
2023/03/03 05:14:45;;;;;;;20.92;10.82;;;-0.30;99.90;;;;;;4993675;28;20113;-55
2023/03/03 05:17:31;;;;;;;26.02;12.98;;;-0.10;99.90;;;;;;4994195;28;20026;-57
2023/03/03 05:20:17;;;;;;;25.45;12.13;;;0.00;99.90;;;;;;4993094;28;20026;-51
2023/03/03 05:23:03;;;;;;;28.65;14.32;;;0.00;99.90;;;;;;4993044;28;20031;-53
2023/03/03 05:25:50;;;;;;;29.38;15.00;;;0.00;99.90;;;;;;4973888;28;20114;-56
2023/03/03 05:28:36;;;;;;;35.65;15.98;;;0.00;99.90;;;;;;4977384;28;20058;-50
2023/03/03 05:31:22;;;;;;;30.52;15.07;;;0.10;99.90;;;;;;4992950;28;20026;-55
2023/03/03 05:34:08;;;;;;;30.52;15.60;;;0.10;99.90;;;;;;4993383;28;20030;-55
2023/03/03 05:36:54;;;;;;;33.85;17.42;;;0.10;99.90;;;;;;4992115;28;20045;-54
2023/03/03 05:39:40;;;;;;;31.90;15.77;;;0.20;99.90;;;;;;4992057;28;20038;-53
2023/03/03 05:42:26;;;;;;;31.40;15.85;;;0.30;99.90;;;;;;4993827;28;20033;-53
2023/03/03 05:45:12;;;;;;;31.67;16.20;;;0.40;99.90;;;;;;4992976;28;20030;-56
2023/03/03 05:47:58;;;;;;;34.70;16.23;;;0.40;99.90;;;;;;4992717;28;20125;-56
2023/03/03 05:50:44;;;;;;;34.97;17.27;;;0.50;99.90;;;;;;4992877;28;20057;-55
2023/03/03 05:53:30;;;;;;;30.77;16.42;;;0.50;99.90;;;;;;4992593;28;20041;-53
2023/03/03 05:56:16;;;;;;;33.85;17.42;;;0.40;99.90;;;;;;4978102;28;20033;-55
2023/03/03 05:59:02;;;;;;;36.13;17.05;;;0.50;99.90;;;;;;4993176;28;20445;-54
2023/03/03 06:01:48;;;;;;;37.20;17.27;;;0.40;99.90;;;;;;4992476;28;20034;-57
2023/03/03 06:04:34;;;;;;;30.70;15.88;;;0.40;99.90;;;;;;4992275;28;20093;-59
2023/03/03 06:07:20;;;;;;;35.45;17.30;;;0.30;99.90;;;;;;4993237;28;20029;-56
2023/03/03 06:10:06;;;;;;;37.97;16.70;;;0.50;99.90;;;;;;4991571;28;20031;-57
2023/03/03 06:12:53;;;;;;;33.85;15.93;;;0.50;99.90;;;;;;4992336;28;20025;-52
2023/03/03 06:15:39;;;;;;;35.72;17.35;;;0.50;99.90;;;;;;4992391;28;20534;-54
2023/03/03 06:18:25;;;;;;;32.45;14.82;;;0.60;99.90;;;;;;4991986;28;20511;-55
2023/03/03 06:21:11;;;;;;;32.78;15.75;;;0.60;99.90;;;;;;4972230;28;20031;-54
2023/03/03 06:23:57;;;;;;;31.10;14.15;;;0.50;99.90;;;;;;4973803;28;20031;-55
2023/03/03 06:26:43;;;;;;;37.17;18.23;;;0.60;99.90;;;;;;4992428;28;20025;-54
2023/03/03 06:29:29;;;;;;;31.95;16.17;;;0.60;99.90;;;;;;4983907;28;20097;-53
2023/03/03 06:32:15;;;;;;;28.20;15.15;;;0.70;99.90;;;;;;4973771;28;20039;-56
2023/03/03 06:35:01;;;;;;;36.75;17.77;;;0.80;99.90;;;;;;4990555;28;20031;-53
2023/03/03 06:37:49;;;;;;;30.00;15.18;;;0.80;99.90;;;;;;4976643;28;20034;-60
2023/03/03 06:40:36;;;;;;;34.72;15.25;;;0.70;99.90;;;;;;4991878;28;20670;-52
2023/03/03 06:43:22;;;;;;;33.92;16.23;;;0.70;99.90;;;;;;4990991;28;20497;-58
2023/03/03 06:46:08;;;;;;;30.63;16.13;;;0.80;99.90;;;;;;4972283;28;20117;-58
2023/03/03 06:48:54;;;;;;;37.72;18.17;;;0.80;99.90;;;;;;4976122;28;20053;-58
2023/03/03 06:51:41;;;;;;;31.98;14.82;;;0.90;99.90;;;;;;4991750;28;20018;-55
2023/03/03 06:54:28;;;;;;;28.55;14.68;;;0.90;99.90;;;;;;4991033;28;20042;-58
2023/03/03 06:57:25;;;;;;;31.20;15.07;;;0.90;99.90;;;;;;4990976;28;20039;-52
2023/03/03 07:00:23;;;;;;;30.88;14.75;;;0.90;99.90;;;;;;4990765;28;20404;-56
2023/03/03 07:03:22;;;;;;;33.05;15.68;;;0.80;99.90;;;;;;4991575;28;20045;-61
2023/03/03 07:06:22;;;;;;;32.95;15.77;;;0.60;99.90;;;;;;4972114;28;20030;-59
2023/03/03 07:09:19;;;;;;;31.02;15.57;;;0.70;99.90;;;;;;4974882;28;20023;-56
2023/03/03 07:12:28;;;;;;;35.60;15.55;;;0.80;99.90;;;;;;4992188;28;20101;-55
2023/03/03 07:15:22;;;;;;;33.10;16.35;;;0.90;99.90;;;;;;4990826;28;20458;-57
2023/03/03 07:18:31;;;;;;;33.97;15.48;;;0.90;99.90;;;;;;4991514;28;20073;-58
2023/03/03 07:21:37;;;;;;;34.88;16.98;;;0.80;99.90;;;;;;4972454;28;20058;-52
2023/03/03 07:24:30;;;;;;;32.08;15.73;;;0.70;99.90;;;;;;4963919;28;20074;-52
2023/03/03 07:27:25;;;;;;;33.92;15.60;;;0.80;99.90;;;;;;4978152;28;20022;-54
2023/03/03 07:30:27;;;;;;;36.85;16.50;;;0.90;99.90;;;;;;4991364;28;20459;-50
2023/03/03 07:33:42;;;;;;;35.42;15.80;;;1.00;99.90;;;;;;4993098;28;20045;-53
2023/03/03 07:36:35;;;;;;;34.15;16.17;;;1.20;99.90;;;;;;4972912;28;20034;-50
2023/03/03 07:39:27;;;;;;;34.13;15.43;;;1.10;99.90;;;;;;4958185;28;20158;-53
2023/03/03 07:42:30;;;;;;;33.42;16.27;;;1.20;99.90;;;;;;4972844;28;20042;-54
2023/03/03 07:45:42;;;;;;;36.63;16.52;;;1.30;99.90;;;;;;4988190;28;20411;-53
2023/03/03 07:48:36;;;;;;;33.67;16.52;;;1.40;99.90;;;;;;4982036;28;20028;-53
2023/03/03 07:51:28;;;;;;;33.40;16.25;;;1.40;99.90;;;;;;4972463;28;20481;-57
2023/03/03 07:54:39;;;;;;;38.60;18.63;;;1.40;99.90;;;;;;4991803;28;20406;-56
2023/03/03 07:57:26;;;;;;;34.40;18.40;;;1.50;99.90;;;;;;4991618;28;20057;-55
2023/03/03 08:00:15;;;;;;;32.45;17.17;;;1.50;99.90;;;;;;4990830;28;20095;-57
2023/03/03 08:03:11;;;;;;;39.65;18.48;;;1.50;99.90;;;;;;4990954;28;20034;-59
2023/03/03 08:05:57;;;;;;;38.78;16.80;;;1.40;99.90;;;;;;4991982;28;20466;-55
2023/03/03 08:08:46;;;;;;;39.80;19.55;;;1.50;99.90;;;;;;4977219;28;20406;-52
2023/03/03 08:11:32;;;;;;;37.15;18.23;;;1.50;99.90;;;;;;4990660;28;20034;-55
2023/03/03 08:14:30;;;;;;;35.78;17.70;;;1.60;99.90;;;;;;4994211;28;20058;-59
2023/03/03 08:17:26;;;;;;;43.75;19.83;;;1.60;99.90;;;;;;4993390;28;20522;-60
2023/03/03 08:20:28;;;;;;;39.10;18.10;;;1.50;99.90;;;;;;4994238;28;20040;-61
2023/03/03 08:23:16;;;;;;;41.90;20.13;;;1.50;99.90;;;;;;4993022;28;20102;-59
2023/03/03 08:26:01;;;;;;;42.88;18.33;;;1.50;99.90;;;;;;4966655;28;20026;-58
2023/03/03 08:28:48;;;;;;;37.10;18.13;;;1.60;99.90;;;;;;4993723;28;20023;-60
2023/03/03 08:31:34;;;;;;;40.78;17.48;;;1.70;99.90;;;;;;4989690;28;20042;-60
2023/03/03 08:34:20;;;;;;;39.03;17.33;;;1.70;99.90;;;;;;4985080;28;20058;-60
2023/03/03 08:37:06;;;;;;;34.60;16.50;;;1.70;99.90;;;;;;4992449;28;20069;-60
2023/03/03 08:39:52;;;;;;;35.08;16.63;;;1.70;99.90;;;;;;4993840;28;20031;-61
2023/03/03 08:42:38;;;;;;;37.05;16.67;;;1.80;99.90;;;;;;4979515;28;20392;-61
2023/03/03 08:45:25;;;;;;;29.85;16.17;;;1.80;99.90;;;;;;4979433;28;20272;-62
2023/03/03 08:48:11;;;;;;;35.10;17.40;;;1.80;99.90;;;;;;4994095;28;20033;-61
2023/03/03 08:50:57;;;;;;;34.88;16.85;;;1.90;99.90;;;;;;4994011;28;20034;-63
2023/03/03 08:53:43;;;;;;;36.90;16.35;;;2.00;99.90;;;;;;4992662;28;20030;-61
2023/03/03 08:56:29;;;;;;;37.03;17.98;;;2.00;99.90;;;;;;4988370;28;20041;-59
2023/03/03 08:59:15;;;;;;;36.63;18.17;;;1.80;99.90;;;;;;4972081;28;20037;-61
2023/03/03 09:02:01;;;;;;;42.33;17.75;;;1.60;99.90;;;;;;4998373;28;20029;-63
2023/03/03 09:04:47;;;;;;;42.30;18.85;;;1.70;99.90;;;;;;4996466;28;20027;-54
2023/03/03 09:07:34;;;;;;;45.28;20.65;;;1.80;99.90;;;;;;4960422;28;20511;-63
2023/03/03 09:10:26;;;;;;;43.67;20.35;;;1.70;99.90;;;;;;4993476;28;20515;-61
2023/03/03 09:13:18;;;;;;;41.53;19.52;;;1.60;99.90;;;;;;4992266;28;20385;-61
2023/03/03 09:16:14;;;;;;;47.53;20.55;;;1.40;99.90;;;;;;4984558;28;20034;-60
2023/03/03 09:19:15;;;;;;;54.70;23.05;;;1.40;99.90;;;;;;4993652;28;20517;-59
2023/03/03 09:22:22;;;;;;;50.30;19.75;;;1.30;99.90;;;;;;4993406;28;20038;-57
2023/03/03 09:25:33;;;;;;;53.58;21.30;;;1.40;99.90;;;;;;4991835;28;20062;-60
2023/03/03 09:28:30;;;;;;;47.88;19.92;;;1.40;99.90;;;;;;4991361;28;20113;-56
2023/03/03 09:31:37;;;;;;;46.92;19.23;;;1.50;99.90;;;;;;4992307;28;20022;-59
2023/03/03 09:34:35;;;;;;;47.17;20.77;;;1.60;99.90;;;;;;4993085;28;20085;-61
2023/03/03 09:37:40;;;;;;;46.20;20.55;;;1.60;99.90;;;;;;4965426;28;20026;-52
2023/03/03 09:40:48;;;;;;;50.10;19.58;;;1.60;99.90;;;;;;4985818;28;20054;-58
2023/03/03 09:43:33;;;;;;;44.58;21.80;;;1.70;99.90;;;;;;4992722;28;20046;-50
2023/03/03 09:46:22;;;;;;;60.80;30.75;;;1.60;99.90;;;;;;4978025;28;20108;-52
2023/03/03 09:49:26;;;;;;;36.70;18.48;;;1.60;99.90;;;;;;4991991;28;20023;-55
2023/03/03 09:53:03;;;;;;;33.28;17.35;;;1.80;99.90;;;;;;4992759;28;20030;-55
2023/03/03 09:55:57;;;;;;;33.30;16.90;;;1.70;99.90;;;;;;4964128;28;20059;-55
2023/03/03 09:58:59;;;;;;;40.05;18.80;;;1.80;99.90;;;;;;4992026;28;20529;-55
2023/03/03 10:02:03;;;;;;;34.22;17.67;;;2.00;99.90;;;;;;4991862;28;20030;-58
2023/03/03 10:04:56;;;;;;;36.58;18.80;;;2.20;99.90;;;;;;4991828;28;20167;-57
2023/03/03 10:07:51;;;;;;;37.60;18.75;;;1.80;99.90;;;;;;4992107;28;20041;-53
2023/03/03 10:11:18;;;;;;;36.75;18.30;;;1.90;99.90;;;;;;4992422;28;20109;-55
2023/03/03 10:14:12;;;;;;;35.90;17.10;;;1.80;99.90;;;;;;4977644;28;20034;-53
2023/03/03 10:17:01;;;;;;;35.90;16.52;;;2.00;99.90;;;;;;4972509;28;20023;-53
2023/03/03 10:19:50;;;;;;;34.50;17.35;;;2.00;99.90;;;;;;4993057;28;20026;-53
2023/03/03 10:22:48;;;;;;;35.25;17.02;;;2.10;99.90;;;;;;4992887;28;20034;-51
2023/03/03 10:26:04;;;;;;;41.47;17.83;;;2.00;99.90;;;;;;4994322;28;20044;-52
2023/03/03 10:29:09;;;;;;;36.50;16.75;;;1.90;99.90;;;;;;4986060;28;20109;-50
2023/03/03 10:32:16;;;;;;;36.15;17.17;;;2.00;99.90;;;;;;4983630;28;20027;-51
2023/03/03 10:35:21;;;;;;;33.83;16.17;;;2.00;99.90;;;;;;4984003;28;20498;-54
2023/03/03 10:38:13;;;;;;;33.28;17.13;;;2.10;99.90;;;;;;4992663;28;20420;-51
2023/03/03 10:41:35;;;;;;;33.30;17.33;;;2.10;99.90;;;;;;4975248;28;20046;-56
2023/03/03 10:44:27;;;;;;;34.35;16.50;;;2.00;99.90;;;;;;4991464;28;20026;-51
2023/03/03 10:47:16;;;;;;;32.03;16.75;;;2.00;99.90;;;;;;4976467;28;20057;-53
2023/03/03 10:50:15;;;;;;;32.17;16.65;;;2.10;99.90;;;;;;4973655;28;20030;-59
2023/03/03 10:53:15;;;;;;;34.28;17.92;;;2.10;99.90;;;;;;4992689;28;20026;-59
2023/03/03 10:56:44;;;;;;;29.50;15.52;;;2.10;99.90;;;;;;4988563;28;20030;-60
2023/03/03 10:59:39;;;;;;;26.67;13.63;;;2.30;99.90;;;;;;4992299;28;20042;-59
2023/03/03 11:02:55;;;;;;;28.85;14.82;;;2.30;99.90;;;;;;4990819;28;20049;-61
2023/03/03 11:05:50;;;;;;;29.95;14.80;;;2.30;99.90;;;;;;4999353;28;20454;-59
2023/03/03 11:08:45;;;;;;;33.22;15.43;;;2.40;99.90;;;;;;4994640;28;20030;-57
2023/03/03 11:11:46;;;;;;;29.05;15.75;;;2.50;99.90;;;;;;4987400;28;20030;-57
2023/03/03 11:14:58;;;;;;;30.35;15.00;;;2.50;99.90;;;;;;5004987;28;20037;-57
2023/03/03 11:18:05;;;;;;;26.08;15.70;;;2.50;99.90;;;;;;4991956;28;20029;-60
2023/03/03 11:20:55;;;;;;;34.17;16.75;;;2.60;99.90;;;;;;4997560;28;20027;-59
2023/03/03 11:24:33;;;;;;;32.65;16.35;;;2.50;99.90;;;;;;4994735;28;20026;-59
2023/03/03 11:27:47;;;;;;;27.75;15.20;;;2.50;99.90;;;;;;4966851;28;20093;-58
2023/03/03 11:30:44;;;;;;;29.15;15.95;;;2.50;99.90;;;;;;4991167;28;20027;-56
2023/03/03 11:34:06;;;;;;;29.73;16.52;;;2.40;99.90;;;;;;4979679;28;20506;-59
2023/03/03 11:37:00;;;;;;;30.33;16.80;;;2.40;99.90;;;;;;5003170;28;20037;-61
2023/03/03 11:39:49;;;;;;;31.00;17.02;;;2.50;99.90;;;;;;5009641;28;20018;-60
2023/03/03 11:42:40;;;;;;;32.30;17.27;;;2.40;99.90;;;;;;5009889;28;20041;-57
2023/03/03 11:45:44;;;;;;;31.08;16.30;;;2.50;99.90;;;;;;5010970;28;20026;-58
2023/03/03 11:48:51;;;;;;;34.05;17.83;;;2.50;99.90;;;;;;5012862;28;20528;-56
2023/03/03 11:51:49;;;;;;;31.98;18.27;;;2.40;99.90;;;;;;5014453;28;20058;-57
2023/03/03 11:54:42;;;;;;;34.95;17.48;;;2.20;99.90;;;;;;5013953;28;20174;-62
2023/03/03 11:57:35;;;;;;;32.90;17.13;;;2.50;99.90;;;;;;5014189;28;20101;-57
2023/03/03 12:00:35;;;;;;;34.15;16.92;;;2.50;99.90;;;;;;5013465;28;20036;-58
2023/03/03 12:03:27;;;;;;;29.55;15.10;;;2.60;99.90;;;;;;5013505;28;20128;-55
2023/03/03 12:06:23;;;;;;;27.13;16.58;;;2.60;99.90;;;;;;5013993;28;20068;-53
2023/03/03 12:09:21;;;;;;;28.48;15.70;;;2.70;99.90;;;;;;5013596;28;20072;-58
2023/03/03 12:12:14;;;;;;;26.15;15.00;;;2.60;99.90;;;;;;5014209;28;20022;-57
2023/03/03 12:15:09;;;;;;;31.98;16.17;;;2.70;99.90;;;;;;5004805;28;20031;-55
2023/03/03 12:18:17;;;;;;;27.95;16.33;;;2.80;99.90;;;;;;5005552;28;20041;-61
2023/03/03 12:21:27;;;;;;;29.27;15.20;;;2.70;99.90;;;;;;4999983;28;20041;-56
2023/03/03 12:24:16;;;;;;;28.00;15.95;;;2.60;99.90;;;;;;5013632;28;20080;-58
2023/03/03 12:27:37;;;;;;;31.35;16.33;;;2.60;99.90;;;;;;5013575;28;20486;-59
2023/03/03 12:30:41;;;;;;;29.52;16.17;;;2.70;99.90;;;;;;5000840;28;20038;-57
2023/03/03 12:33:48;;;;;;;31.60;15.48;;;2.70;99.90;;;;;;4977479;28;20435;-59
2023/03/03 12:37:10;;;;;;;31.48;16.45;;;2.80;99.90;;;;;;4993404;28;20086;-60
2023/03/03 12:40:19;;;;;;;33.22;15.77;;;2.90;99.90;;;;;;4915109;29;20035;-61
2023/03/03 12:43:17;;;;;;;27.65;15.13;;;2.80;99.90;;;;;;4993436;28;20041;-57
2023/03/03 12:46:12;;;;;;;26.60;13.98;;;2.80;99.90;;;;;;4980135;28;20073;-58
2023/03/03 12:48:58;;;;;;;24.40;14.18;;;2.80;99.90;;;;;;4992019;28;20033;-58
2023/03/03 12:52:02;;;;;;;27.20;14.98;;;2.80;99.90;;;;;;5002550;28;20487;-59
2023/03/03 12:55:07;;;;;;;25.48;14.75;;;2.80;99.90;;;;;;4992590;28;20049;-59
2023/03/03 12:58:12;;;;;;;27.52;15.50;;;2.70;99.90;;;;;;4993678;28;20027;-55
2023/03/03 13:01:27;;;;;;;25.05;14.50;;;2.80;99.90;;;;;;4992458;28;20085;-60
2023/03/03 13:04:37;;;;;;;26.80;15.32;;;2.90;99.90;;;;;;4974652;28;20031;-62
2023/03/03 13:07:36;;;;;;;28.33;15.52;;;2.90;99.90;;;;;;4992583;28;20033;-58
2023/03/03 13:10:54;;;;;;;23.30;13.90;;;2.90;99.90;;;;;;4974097;28;20134;-58
2023/03/03 13:13:58;;;;;;;22.38;13.45;;;3.00;99.90;;;;;;4985307;28;20061;-58
2023/03/03 13:16:57;;;;;;;26.45;13.60;;;3.10;99.90;;;;;;4992321;28;20039;-58
2023/03/03 13:20:01;;;;;;;23.63;13.50;;;3.10;99.90;;;;;;4992499;28;20503;-60
2023/03/03 13:23:00;;;;;;;23.95;13.57;;;3.00;99.90;;;;;;4990167;28;20499;-59
2023/03/03 13:25:52;;;;;;;27.55;14.65;;;3.00;99.90;;;;;;5001106;28;20042;-60
2023/03/03 13:29:04;;;;;;;24.33;13.63;;;3.00;99.90;;;;;;4964832;28;20026;-60
2023/03/03 13:31:58;;;;;;;22.33;11.77;;;3.00;99.90;;;;;;4963967;28;20047;-62
2023/03/03 13:35:06;;;;;;;22.45;12.10;;;3.00;99.90;;;;;;4996436;28;20057;-59
2023/03/03 13:37:56;;;;;;;27.70;14.20;;;3.00;99.90;;;;;;4992800;28;20041;-62
2023/03/03 13:40:49;;;;;;;23.08;12.48;;;3.10;99.90;;;;;;5000647;28;20061;-60
2023/03/03 13:43:48;;;;;;;26.65;13.93;;;3.10;99.90;;;;;;4975823;28;20077;-60
2023/03/03 13:46:56;;;;;;;22.40;13.18;;;2.90;99.90;;;;;;4991095;28;20030;-53
2023/03/03 13:49:59;;;;;;;27.70;13.52;;;3.00;99.90;;;;;;4993229;28;20104;-50
2023/03/03 13:52:57;;;;;;;24.20;12.85;;;3.00;99.90;;;;;;4992710;28;20034;-56
2023/03/03 13:56:00;;;;;;;19.83;11.93;;;3.00;99.90;;;;;;4992747;28;20565;-52
2023/03/03 13:59:15;;;;;;;19.05;11.13;;;3.10;99.90;;;;;;4992770;28;20480;-54
2023/03/03 14:02:24;;;;;;;18.70;11.00;;;3.20;99.90;;;;;;4993976;28;20019;-57
2023/03/03 14:05:24;;;;;;;19.73;10.82;;;3.20;99.90;;;;;;4992816;28;20415;-55
2023/03/03 14:08:43;;;;;;;18.83;9.85;;;3.10;99.90;;;;;;4993722;28;20517;-55
2023/03/03 14:11:32;;;;;;;24.73;11.80;;;3.10;99.90;;;;;;4992657;28;20038;-51
2023/03/03 14:14:43;;;;;;;16.52;10.65;;;3.00;99.90;;;;;;4978498;28;20562;-55
2023/03/03 14:17:48;;;;;;;17.35;11.48;;;3.00;99.90;;;;;;4992290;28;20026;-58
2023/03/03 14:20:40;;;;;;;19.73;11.43;;;3.00;99.90;;;;;;4993778;28;20089;-56
2023/03/03 14:23:44;;;;;;;17.20;10.95;;;3.20;99.90;;;;;;4993163;28;20105;-54
2023/03/03 14:26:33;;;;;;;23.52;12.55;;;3.30;99.90;;;;;;4977881;28;20069;-52
2023/03/03 14:29:29;;;;;;;18.98;11.30;;;3.20;99.90;;;;;;4991898;28;20503;-52
2023/03/03 14:32:24;;;;;;;17.67;11.32;;;3.30;99.90;;;;;;4992365;28;20038;-53
2023/03/03 14:35:19;;;;;;;20.17;10.52;;;3.30;99.90;;;;;;4991280;28;20029;-52
2023/03/03 14:38:18;;;;;;;17.93;10.47;;;3.20;99.90;;;;;;4992062;28;20084;-53
2023/03/03 14:41:16;;;;;;;17.92;10.02;;;3.40;99.90;;;;;;4991758;28;20042;-53
2023/03/03 14:44:28;;;;;;;19.17;11.68;;;3.40;99.90;;;;;;4992381;28;20023;-50
2023/03/03 14:47:22;;;;;;;18.27;10.85;;;3.50;99.90;;;;;;4991912;28;20045;-55
2023/03/03 14:50:33;;;;;;;21.88;12.75;;;3.60;99.90;;;;;;4991682;28;20503;-52